Time;durP1;ratioP1;P1;durP2;ratioP2;P2;SDS_P1;SDS_P2;PMS_P1;PMS_P2;Temp;Humidity;BMP_temperature;BMP_pressure;BME280_temperature;BME280_humidity;BME280_pressure;Samples;Min_cycle;Max_cycle;Signal;HPM_P1;HPM_P2
2024/01/23 00:10:09;;;;;;;27.60;16.00;;;;;;;1.66;78.64;98551.71;436583;1249;107979;-38
2024/01/23 00:20:16;;;;;;;25.90;15.90;;;;;;;1.66;78.67;98560.11;436546;1251;97896;-38
2024/01/23 00:30:22;;;;;;;31.00;17.50;;;;;;;1.57;79.60;98567.17;436509;1251;110832;-37
2024/01/23 00:40:28;;;;;;;21.50;13.40;;;;;;;1.54;80.11;98576.84;436331;1251;108505;-39
2024/01/23 00:50:34;;;;;;;20.10;13.40;;;;;;;1.59;80.90;98569.02;436291;1251;400171;-39
2024/01/23 01:10:47;;;;;;;29.50;16.90;;;;;;;1.60;81.89;98576.80;436573;1251;109071;-41
2024/01/23 01:30:59;;;;;;;20.80;13.40;;;;;;;1.62;82.55;98593.73;436405;1247;97864;-38
2024/01/23 01:41:06;;;;;;;24.50;14.40;;;;;;;1.68;83.35;98604.64;436444;1251;108155;-40
2024/01/23 01:51:14;;;;;;;18.20;13.90;;;;;;;1.72;83.86;98594.02;436647;1251;97354;-38
2024/01/23 02:01:18;;;;;;;28.50;16.80;;;;;;;1.73;83.94;98604.64;436449;1251;109810;-38
2024/01/23 02:11:25;;;;;;;30.20;18.80;;;;;;;1.64;84.28;98627.40;436449;1247;120542;-38
2024/01/23 02:41:44;;;;;;;21.10;13.20;;;;;;;1.54;84.77;98596.31;436405;1251;97897;-39
2024/01/23 02:51:59;;;;;;;30.40;17.80;;;;;;;1.50;85.06;98599.61;436927;1247;110842;31
2024/01/23 03:02:06;;;;;;;31.60;18.80;;;;;;;1.41;85.16;98598.91;435401;1250;107758;-38
2024/01/23 03:12:23;;;;;;;21.20;14.30;;;;;;;1.39;85.42;98601.84;435427;1251;97899;-39
2024/01/23 03:22:30;;;;;;;31.50;18.00;;;;;;;1.41;85.80;98589.82;435420;1254;107620;-39
2024/01/23 03:32:37;;;;;;;31.80;18.80;;;;;;;1.38;85.91;98579.25;435218;1255;97506;-39
2024/01/23 03:42:41;;;;;;;40.40;20.00;;;;;;;1.36;86.18;98585.21;435684;1254;110457;-39
2024/01/23 03:52:49;;;;;;;35.60;22.20;;;;;;;1.25;86.28;98593.89;435351;1250;108385;-39
2024/01/23 04:02:56;;;;;;;28.30;16.90;;;;;;;1.25;86.09;98603.07;435623;1254;96643;-39
2024/01/23 04:23:08;;;;;;;26.80;15.90;;;;;;;1.40;86.52;98623.27;435447;1250;97970;-39
2024/01/23 04:33:14;;;;;;;33.20;19.10;;;;;;;1.42;86.91;98626.39;435409;1254;109617;-39
2024/01/23 05:03:33;;;;;;;26.50;15.10;;;;;;;1.45;87.32;98655.56;435631;1254;112684;-38
2024/01/23 05:23:49;;;;;;;42.10;22.80;;;;;;;1.46;87.71;98655.45;435394;1251;96937;-38
2024/01/23 05:33:56;;;;;;;29.60;17.90;;;;;;;1.32;87.63;98650.64;435116;1249;110412;-38
2024/01/23 05:44:03;;;;;;;29.30;19.50;;;;;;;1.33;87.83;98648.73;435388;1250;106654;-37
2024/01/23 06:04:14;;;;;;;27.30;16.30;;;;;;;1.41;88.07;98658.14;435425;1254;109233;-39
2024/01/23 06:14:21;;;;;;;25.00;17.10;;;;;;;1.48;88.05;98669.16;435475;1256;107557;-39
2024/01/23 06:54:44;;;;;;;23.20;17.10;;;;;;;1.77;88.52;98712.08;435340;1254;97864;-38
2024/01/23 07:04:50;;;;;;;29.10;17.70;;;;;;;1.84;88.41;98735.10;435416;1256;108524;-38
2024/01/23 07:14:58;;;;;;;45.00;23.50;;;;;;;1.86;88.48;98753.02;435731;1256;97878;-39
2024/01/23 07:45:13;;;;;;;31.20;19.20;;;;;;;2.10;88.43;98805.09;435337;1250;107257;-39
2024/01/23 07:55:22;;;;;;;31.10;18.10;;;;;;;2.32;88.43;98817.39;435384;1256;96570;-39
2024/01/23 08:05:29;;;;;;;37.60;20.90;;;;;;;2.46;88.39;98825.05;435445;1250;109733;-38
2024/01/23 08:15:37;;;;;;;34.70;19.70;;;;;;;2.62;88.72;98833.77;435315;1256;97495;-40
2024/01/23 08:25:45;;;;;;;32.20;17.50;;;;;;;3.54;88.12;98834.77;435465;1254;97877;-39
2024/01/23 08:35:52;;;;;;;41.50;22.80;;;;;;;3.52;87.59;98842.67;435362;1253;107541;-39
2024/01/23 08:45:58;;;;;;;38.40;21.60;;;;;;;3.24;87.42;98843.21;435453;1256;97896;-39
2024/01/23 08:56:04;;;;;;;34.80;18.70;;;;;;;4.03;87.81;98856.20;435381;1254;97896;-39
2024/01/23 09:06:12;;;;;;;41.80;23.20;;;;;;;4.04;86.79;98861.27;435538;1251;108153;-39
2024/01/23 09:16:18;;;;;;;40.40;21.60;;;;;;;4.24;86.82;98872.42;435419;1251;97871;-39
2024/01/23 09:36:31;;;;;;;31.00;16.90;;;;;;;4.07;85.77;98910.39;435399;1251;110236;-38
2024/01/23 09:46:39;;;;;;;37.80;17.40;;;;;;;4.05;85.77;98925.23;435374;1254;108078;-41
2024/01/23 09:56:46;;;;;;;34.20;17.10;;;;;;;4.10;85.62;98927.99;435227;1256;97352;-40
2024/01/23 10:06:52;;;;;;;21.90;11.20;;;;;;;4.34;85.46;98935.71;435393;1264;111729;-39
2024/01/23 10:16:59;;;;;;;24.70;11.20;;;;;;;4.39;85.16;98947.98;435245;1254;108382;-38
2024/01/23 10:27:04;;;;;;;24.20;13.80;;;;;;;4.23;85.31;98952.20;435408;1250;97766;-39
2024/01/23 10:37:11;;;;;;;23.60;12.60;;;;;;;4.30;85.42;98955.25;435380;1256;97877;-41
2024/01/23 10:47:19;;;;;;;18.00;11.20;;;;;;;4.39;85.32;98954.02;435119;1254;108597;-40
2024/01/23 10:57:29;;;;;;;22.80;12.20;;;;;;;4.57;85.10;98958.52;435253;1253;97408;-39
2024/01/23 11:07:35;;;;;;;15.20;8.20;;;;;;;4.88;85.11;98973.63;435394;1253;108679;-39
2024/01/23 11:17:42;;;;;;;18.80;7.70;;;;;;;5.07;84.92;98972.51;435281;1256;96988;-39
2024/01/23 11:27:53;;;;;;;17.20;6.90;;;;;;;5.17;84.72;98969.17;435297;1253;110045;-39
2024/01/23 11:48:11;;;;;;;8.60;4.10;;;;;;;5.95;84.10;98982.27;435499;1253;97591;-39
2024/01/23 11:58:19;;;;;;;12.20;4.10;;;;;;;6.12;83.02;98985.40;435404;1250;111065;-40
2024/01/23 12:08:26;;;;;;;12.20;3.70;;;;;;;6.14;82.25;98985.39;435268;1251;109101;-40
2024/01/23 12:18:33;;;;;;;10.00;3.80;;;;;;;6.28;81.36;98981.20;435441;1254;97929;-40
2024/01/23 12:28:41;;;;;;;17.30;5.00;;;;;;;6.17;80.89;98987.02;435472;1253;111512;-39
2024/01/23 12:38:48;;;;;;;8.50;3.10;;;;;;;6.06;80.47;98997.86;435317;1253;108682;-39
2024/01/23 12:49:03;;;;;;;10.50;3.30;;;;;;;5.86;79.56;99003.59;435109;1254;441015;-44
2024/01/23 12:59:11;;;;;;;15.20;3.00;;;;;;;5.66;79.00;99024.20;436547;1251;97576;-39
2024/01/23 13:09:18;;;;;;;7.40;2.80;;;;;;;5.53;79.05;99026.90;435777;1253;108995;-40
2024/01/23 13:19:23;;;;;;;6.80;2.50;;;;;;;5.36;78.98;99048.39;435368;1254;98032;-39
2024/01/23 13:29:31;;;;;;;11.10;4.40;;;;;;;5.24;78.41;99051.98;435404;1253;109497;-40
2024/01/23 13:39:38;;;;;;;7.70;2.80;;;;;;;5.18;78.50;99058.39;435301;1249;108549;-39
2024/01/23 13:59:53;;;;;;;16.10;5.30;;;;;;;5.15;78.08;99071.31;435483;1251;110372;-40
2024/01/23 14:10:00;;;;;;;13.30;4.90;;;;;;;5.03;78.01;99082.30;436447;1253;109378;-40
2024/01/23 14:20:11;;;;;;;8.90;4.30;;;;;;;4.92;77.93;99092.44;435431;1253;109472;-40
2024/01/23 14:40:24;;;;;;;13.30;5.70;;;;;;;4.85;78.15;99120.89;435255;1251;109607;-38
2024/01/23 14:50:31;;;;;;;22.50;9.80;;;;;;;4.70;78.14;99129.14;435194;1254;96640;-39
2024/01/23 15:00:38;;;;;;;13.00;5.20;;;;;;;4.56;78.25;99132.97;435313;1254;97864;-40
2024/01/23 15:10:46;;;;;;;12.40;4.20;;;;;;;4.52;78.32;99143.34;435259;1253;109038;-39
2024/01/23 16:01:17;;;;;;;17.10;6.40;;;;;;;3.97;79.71;99256.84;435314;1254;97366;-40
2024/01/23 16:11:23;;;;;;;20.00;8.20;;;;;;;3.89;80.38;99268.98;435338;1254;108587;-39
2024/01/23 16:21:29;;;;;;;15.00;6.70;;;;;;;3.79;80.78;99283.00;435248;1254;97854;-37
2024/01/23 16:31:35;;;;;;;17.30;5.50;;;;;;;3.81;80.73;99303.01;435317;1254;97995;-40
2024/01/23 16:41:42;;;;;;;15.50;8.10;;;;;;;3.87;80.84;99316.12;435211;1251;107428;-39
2024/01/23 16:51:53;;;;;;;30.20;11.60;;;;;;;3.86;80.89;99315.88;435312;1254;97506;-39
2024/01/23 17:02:05;;;;;;;36.80;13.90;;;;;;;3.76;80.89;99320.11;435360;1254;96635;-39
2024/01/23 17:12:13;;;;;;;35.00;10.90;;;;;;;3.70;80.96;99327.92;435474;1251;109517;-40
2024/01/23 17:52:39;;;;;;;19.90;10.30;;;;;;;3.49;81.22;99372.94;435744;1254;106997;-40
2024/01/23 18:12:52;;;;;;;24.50;14.50;;;;;;;3.48;81.80;99397.42;435330;1254;109337;-39
2024/01/23 18:23:00;;;;;;;28.60;13.70;;;;;;;3.38;81.77;99407.06;435321;1250;106557;-40
2024/01/23 18:33:05;;;;;;;14.50;7.00;;;;;;;3.34;81.72;99409.27;436036;1251;97877;-39
2024/01/23 18:53:16;;;;;;;46.70;16.40;;;;;;;3.35;82.04;99422.34;435397;1254;108114;-38
2024/01/23 19:03:22;;;;;;;42.50;18.10;;;;;;;3.25;82.27;99413.67;435423;1250;97469;-39
2024/01/23 19:13:30;;;;;;;14.30;9.20;;;;;;;3.22;82.20;99420.50;435383;1251;110523;-39
2024/01/23 19:23:38;;;;;;;16.60;7.40;;;;;;;3.23;82.14;99427.66;435245;1254;107221;-39
2024/01/23 19:43:50;;;;;;;32.70;11.30;;;;;;;3.21;82.51;99426.65;435416;1250;110179;-39
2024/01/23 19:53:55;;;;;;;16.90;8.10;;;;;;;3.22;82.40;99425.34;435266;1251;108785;-39
2024/01/23 20:04:02;;;;;;;20.30;8.40;;;;;;;3.30;82.38;99425.05;435319;1254;97856;-39
2024/01/23 20:34:21;;;;;;;31.60;13.80;;;;;;;3.31;82.40;99441.48;435388;1254;97624;-39
2024/01/23 20:44:28;;;;;;;34.40;14.10;;;;;;;3.23;82.38;99449.77;435376;1254;110137;-38
2024/01/23 20:54:34;;;;;;;30.40;13.20;;;;;;;3.21;82.20;99456.80;435365;1249;108029;-39
2024/01/23 21:04:41;;;;;;;26.60;11.40;;;;;;;3.22;82.17;99467.65;435297;1254;97871;-40
2024/01/23 21:14:48;;;;;;;34.60;10.40;;;;;;;3.12;82.07;99470.70;435591;1250;110850;-38
2024/01/23 21:24:54;;;;;;;28.20;10.00;;;;;;;2.87;82.03;99470.10;435527;1250;107928;-39
2024/01/23 22:05:20;;;;;;;21.80;9.80;;;;;;;2.75;82.19;99426.45;435379;1250;108372;-39
2024/01/23 22:35:40;;;;;;;27.90;10.00;;;;;;;2.68;82.02;99395.94;435329;1253;108421;-39
2024/01/23 22:45:48;;;;;;;22.20;9.30;;;;;;;2.69;82.12;99389.01;435233;1251;98345;-39
2024/01/23 23:06:01;;;;;;;29.30;11.20;;;;;;;2.49;82.24;99382.70;435476;1250;107933;-39
2024/01/23 23:36:20;;;;;;;14.50;7.50;;;;;;;2.26;82.30;99338.52;435405;1254;108356;-39
2024/01/23 23:46:27;;;;;;;35.00;12.10;;;;;;;2.17;82.31;99317.77;435448;1253;97871;-39
2024/01/23 23:56:35;;;;;;;28.10;11.90;;;;;;;1.98;82.43;99300.16;435474;1253;109800;-40
